sensor_id;sensor_type;location;lat;lon;timestamp;pressure;altitude;pressure_sealevel;temperature;humidity
20009;BME280;10165;42.662;23.260;2023-07-29T00:01:32;94015.31;;;23.88;40.94
20009;BME280;10165;42.662;23.260;2023-07-29T00:03:59;94024.81;;;23.84;40.63
20009;BME280;10165;42.662;23.260;2023-07-29T00:06:26;94023.19;;;23.86;40.80
20009;BME280;10165;42.662;23.260;2023-07-29T00:08:53;94032.16;;;23.70;41.27
20009;BME280;10165;42.662;23.260;2023-07-29T00:11:20;94028.56;;;23.73;41.00
20009;BME280;10165;42.662;23.260;2023-07-29T00:13:47;94029.31;;;23.90;40.97
20009;BME280;10165;42.662;23.260;2023-07-29T00:16:13;94032.84;;;23.58;41.48
20009;BME280;10165;42.662;23.260;2023-07-29T00:18:42;94022.41;;;23.57;41.56
20009;BME280;10165;42.662;23.260;2023-07-29T00:21:08;94017.63;;;23.61;41.55
20009;BME280;10165;42.662;23.260;2023-07-29T00:23:35;94023.66;;;23.68;41.77
20009;BME280;10165;42.662;23.260;2023-07-29T00:26:02;94016.38;;;23.78;41.48
20009;BME280;10165;42.662;23.260;2023-07-29T00:28:29;94015.50;;;23.81;41.24
20009;BME280;10165;42.662;23.260;2023-07-29T00:30:56;94017.91;;;23.79;41.45
20009;BME280;10165;42.662;23.260;2023-07-29T00:33:22;94018.22;;;23.81;41.33
20009;BME280;10165;42.662;23.260;2023-07-29T00:35:49;94013.34;;;23.89;41.03
20009;BME280;10165;42.662;23.260;2023-07-29T00:38:16;94012.25;;;23.86;41.14
20009;BME280;10165;42.662;23.260;2023-07-29T00:40:43;94014.03;;;23.31;42.35
20009;BME280;10165;42.662;23.260;2023-07-29T00:43:09;94009.34;;;23.16;42.68
20009;BME280;10165;42.662;23.260;2023-07-29T00:45:37;94012.19;;;23.45;42.13
20009;BME280;10165;42.662;23.260;2023-07-29T00:48:04;94005.09;;;23.47;41.88
20009;BME280;10165;42.662;23.260;2023-07-29T00:50:32;94009.84;;;23.59;41.92
20009;BME280;10165;42.662;23.260;2023-07-29T00:52:59;94002.28;;;23.51;41.85
20009;BME280;10165;42.662;23.260;2023-07-29T00:55:26;94008.94;;;23.33;42.43
20009;BME280;10165;42.662;23.260;2023-07-29T00:57:53;93999.91;;;23.20;42.74
20009;BME280;10165;42.662;23.260;2023-07-29T01:00:21;94009.44;;;23.28;42.76
20009;BME280;10165;42.662;23.260;2023-07-29T01:02:48;93999.41;;;23.42;42.48
20009;BME280;10165;42.662;23.260;2023-07-29T01:05:16;94004.00;;;23.45;42.26
20009;BME280;10165;42.662;23.260;2023-07-29T01:10:58;94004.50;;;23.40;42.15
20009;BME280;10165;42.662;23.260;2023-07-29T01:13:53;93994.00;;;23.38;42.48
20009;BME280;10165;42.662;23.260;2023-07-29T01:16:30;94002.19;;;23.38;42.30
20009;BME280;10165;42.662;23.260;2023-07-29T01:18:59;93999.81;;;23.24;42.85
20009;BME280;10165;42.662;23.260;2023-07-29T01:21:28;93999.72;;;23.27;42.61
20009;BME280;10165;42.662;23.260;2023-07-29T01:23:58;94002.63;;;23.20;42.82
20009;BME280;10165;42.662;23.260;2023-07-29T01:26:25;94005.78;;;22.70;43.70
20009;BME280;10165;42.662;23.260;2023-07-29T01:28:53;94010.06;;;22.52;44.29
20009;BME280;10165;42.662;23.260;2023-07-29T01:31:27;94000.38;;;22.67;44.04
20009;BME280;10165;42.662;23.260;2023-07-29T01:34:01;93998.47;;;22.83;43.95
20009;BME280;10165;42.662;23.260;2023-07-29T01:36:32;94000.59;;;22.92;43.46
20009;BME280;10165;42.662;23.260;2023-07-29T01:39:02;94007.25;;;23.07;43.44
20009;BME280;10165;42.662;23.260;2023-07-29T01:41:29;94002.28;;;22.70;44.07
20009;BME280;10165;42.662;23.260;2023-07-29T01:43:57;94003.09;;;22.67;43.90
20009;BME280;10165;42.662;23.260;2023-07-29T01:46:24;94001.50;;;22.69;44.19
20009;BME280;10165;42.662;23.260;2023-07-29T01:48:51;94001.19;;;22.83;43.93
20009;BME280;10165;42.662;23.260;2023-07-29T01:51:18;94009.03;;;22.46;44.54
20009;BME280;10165;42.662;23.260;2023-07-29T01:53:45;93999.00;;;22.59;44.58
20009;BME280;10165;42.662;23.260;2023-07-29T01:56:12;93997.16;;;22.36;44.89
20009;BME280;10165;42.662;23.260;2023-07-29T01:58:38;93999.72;;;22.07;45.79
20009;BME280;10165;42.662;23.260;2023-07-29T02:01:05;93999.69;;;22.27;45.44
20009;BME280;10165;42.662;23.260;2023-07-29T02:03:32;93996.28;;;22.59;44.71
20009;BME280;10165;42.662;23.260;2023-07-29T02:05:59;93996.13;;;22.66;44.71
20009;BME280;10165;42.662;23.260;2023-07-29T02:08:26;94005.50;;;22.65;44.50
20009;BME280;10165;42.662;23.260;2023-07-29T02:10:53;94003.09;;;22.67;44.36
20009;BME280;10165;42.662;23.260;2023-07-29T02:13:19;94001.97;;;22.48;44.93
20009;BME280;10165;42.662;23.260;2023-07-29T02:15:46;93999.06;;;22.19;45.65
20009;BME280;10165;42.662;23.260;2023-07-29T02:18:13;94006.19;;;22.33;45.48
20009;BME280;10165;42.662;23.260;2023-07-29T02:20:39;94006.19;;;22.33;45.21
20009;BME280;10165;42.662;23.260;2023-07-29T02:23:07;94010.19;;;22.09;45.81
20009;BME280;10165;42.662;23.260;2023-07-29T02:25:35;94014.28;;;21.97;46.15
20009;BME280;10165;42.662;23.260;2023-07-29T02:28:02;94021.41;;;21.91;46.39
20009;BME280;10165;42.662;23.260;2023-07-29T02:30:30;94016.91;;;21.81;46.92
20009;BME280;10165;42.662;23.260;2023-07-29T02:32:57;94009.81;;;21.87;46.75
20009;BME280;10165;42.662;23.260;2023-07-29T02:35:24;94016.25;;;22.16;46.16
20009;BME280;10165;42.662;23.260;2023-07-29T02:37:50;94010.25;;;22.05;46.43
20009;BME280;10165;42.662;23.260;2023-07-29T02:40:17;94011.69;;;22.29;45.89
20009;BME280;10165;42.662;23.260;2023-07-29T02:42:44;94006.56;;;22.15;46.23
20009;BME280;10165;42.662;23.260;2023-07-29T02:45:10;94011.22;;;22.15;46.21
20009;BME280;10165;42.662;23.260;2023-07-29T02:47:38;94011.94;;;22.19;46.01
20009;BME280;10165;42.662;23.260;2023-07-29T02:50:05;94011.56;;;21.97;46.60
20009;BME280;10165;42.662;23.260;2023-07-29T02:52:32;94009.94;;;22.19;46.14
20009;BME280;10165;42.662;23.260;2023-07-29T02:54:59;94021.34;;;21.95;46.78
20009;BME280;10165;42.662;23.260;2023-07-29T02:57:25;94009.97;;;22.00;46.64
20009;BME280;10165;42.662;23.260;2023-07-29T02:59:52;94016.06;;;21.64;47.67
20009;BME280;10165;42.662;23.260;2023-07-29T03:02:18;94013.41;;;21.61;47.92
20009;BME280;10165;42.662;23.260;2023-07-29T03:04:47;94028.75;;;21.71;47.46
20009;BME280;10165;42.662;23.260;2023-07-29T03:07:14;94025.69;;;21.92;46.72
20009;BME280;10165;42.662;23.260;2023-07-29T03:09:41;94031.88;;;22.12;46.33
20009;BME280;10165;42.662;23.260;2023-07-29T03:12:08;94029.44;;;22.18;46.22
20009;BME280;10165;42.662;23.260;2023-07-29T03:14:35;94024.00;;;22.18;46.02
20009;BME280;10165;42.662;23.260;2023-07-29T03:17:02;94021.50;;;22.07;46.31
20009;BME280;10165;42.662;23.260;2023-07-29T03:19:30;94019.50;;;21.88;46.78
20009;BME280;10165;42.662;23.260;2023-07-29T03:21:57;94033.72;;;21.76;47.44
20009;BME280;10165;42.662;23.260;2023-07-29T03:24:24;94032.22;;;21.95;46.92
20009;BME280;10165;42.662;23.260;2023-07-29T03:26:51;94036.09;;;21.51;48.21
20009;BME280;10165;42.662;23.260;2023-07-29T03:29:18;94031.91;;;21.69;47.80
20009;BME280;10165;42.662;23.260;2023-07-29T03:31:44;94035.25;;;21.77;47.65
20009;BME280;10165;42.662;23.260;2023-07-29T03:34:11;94030.28;;;21.95;47.25
20009;BME280;10165;42.662;23.260;2023-07-29T03:36:39;94029.16;;;22.12;46.96
20009;BME280;10165;42.662;23.260;2023-07-29T03:39:05;94023.59;;;22.00;47.30
20009;BME280;10165;42.662;23.260;2023-07-29T03:41:34;94019.25;;;22.02;47.25
20009;BME280;10165;42.662;23.260;2023-07-29T03:44:00;94023.22;;;22.17;46.88
20009;BME280;10165;42.662;23.260;2023-07-29T03:46:27;94025.94;;;21.98;47.50
20009;BME280;10165;42.662;23.260;2023-07-29T03:48:54;94033.88;;;21.88;47.93
20009;BME280;10165;42.662;23.260;2023-07-29T03:51:21;94025.88;;;22.01;47.20
20009;BME280;10165;42.662;23.260;2023-07-29T03:53:48;94026.97;;;21.84;47.50
20009;BME280;10165;42.662;23.260;2023-07-29T03:56:15;94033.50;;;21.86;47.57
20009;BME280;10165;42.662;23.260;2023-07-29T03:58:43;94021.78;;;21.70;47.47
20009;BME280;10165;42.662;23.260;2023-07-29T04:01:10;94032.09;;;21.78;47.34
20009;BME280;10165;42.662;23.260;2023-07-29T04:03:37;94034.69;;;21.85;46.68
20009;BME280;10165;42.662;23.260;2023-07-29T04:06:04;94041.56;;;21.70;47.45
20009;BME280;10165;42.662;23.260;2023-07-29T04:08:31;94038.72;;;21.58;48.09
20009;BME280;10165;42.662;23.260;2023-07-29T04:10:58;94034.63;;;21.69;47.65
20009;BME280;10165;42.662;23.260;2023-07-29T04:13:24;94041.03;;;21.79;47.28
20009;BME280;10165;42.662;23.260;2023-07-29T04:15:51;94033.63;;;22.03;47.01
20009;BME280;10165;42.662;23.260;2023-07-29T04:18:18;94038.66;;;21.61;47.87
20009;BME280;10165;42.662;23.260;2023-07-29T04:20:45;94034.13;;;21.74;47.47
20009;BME280;10165;42.662;23.260;2023-07-29T04:23:12;94029.09;;;21.96;47.44
20009;BME280;10165;42.662;23.260;2023-07-29T04:25:38;94040.78;;;21.93;46.98
20009;BME280;10165;42.662;23.260;2023-07-29T04:28:05;94042.34;;;21.71;47.34
20009;BME280;10165;42.662;23.260;2023-07-29T04:30:32;94042.56;;;21.80;47.54
20009;BME280;10165;42.662;23.260;2023-07-29T04:32:58;94051.94;;;21.32;48.09
20009;BME280;10165;42.662;23.260;2023-07-29T04:35:25;94046.91;;;21.08;48.89
20009;BME280;10165;42.662;23.260;2023-07-29T04:37:52;94050.66;;;21.17;48.98
20009;BME280;10165;42.662;23.260;2023-07-29T04:40:19;94052.00;;;21.52;48.54
20009;BME280;10165;42.662;23.260;2023-07-29T04:45:12;94050.38;;;21.78;47.75
20009;BME280;10165;42.662;23.260;2023-07-29T04:47:39;94048.47;;;21.98;47.62
20009;BME280;10165;42.662;23.260;2023-07-29T04:50:06;94044.56;;;21.99;47.13
20009;BME280;10165;42.662;23.260;2023-07-29T04:52:33;94046.75;;;22.08;47.15
20009;BME280;10165;42.662;23.260;2023-07-29T04:55:00;94048.00;;;22.23;46.47
20009;BME280;10165;42.662;23.260;2023-07-29T04:57:27;94052.81;;;22.15;46.92
20009;BME280;10165;42.662;23.260;2023-07-29T04:59:53;94056.00;;;22.30;46.62
20009;BME280;10165;42.662;23.260;2023-07-29T05:02:20;94065.03;;;21.84;47.65
20009;BME280;10165;42.662;23.260;2023-07-29T05:04:47;94063.81;;;22.08;47.11
20009;BME280;10165;42.662;23.260;2023-07-29T05:07:14;94067.19;;;21.96;47.52
20009;BME280;10165;42.662;23.260;2023-07-29T05:09:41;94063.63;;;22.19;46.99
20009;BME280;10165;42.662;23.260;2023-07-29T05:12:08;94070.88;;;22.25;47.15
20009;BME280;10165;42.662;23.260;2023-07-29T05:14:34;94072.19;;;22.57;46.26
20009;BME280;10165;42.662;23.260;2023-07-29T05:17:01;94070.56;;;22.59;46.43
20009;BME280;10165;42.662;23.260;2023-07-29T05:19:28;94074.22;;;22.33;47.16
20009;BME280;10165;42.662;23.260;2023-07-29T05:21:56;94073.06;;;22.70;46.39
20009;BME280;10165;42.662;23.260;2023-07-29T05:24:23;94071.03;;;22.54;46.28
20009;BME280;10165;42.662;23.260;2023-07-29T05:26:50;94075.94;;;22.63;46.03
20009;BME280;10165;42.662;23.260;2023-07-29T05:29:17;94069.78;;;22.78;46.08
20009;BME280;10165;42.662;23.260;2023-07-29T05:31:43;94069.28;;;22.83;46.03
20009;BME280;10165;42.662;23.260;2023-07-29T05:34:10;94074.66;;;22.87;45.77
20009;BME280;10165;42.662;23.260;2023-07-29T05:36:37;94073.13;;;22.66;45.93
20009;BME280;10165;42.662;23.260;2023-07-29T05:39:04;94073.88;;;22.86;45.85
20009;BME280;10165;42.662;23.260;2023-07-29T05:41:31;94067.31;;;22.68;46.65
20009;BME280;10165;42.662;23.260;2023-07-29T05:43:58;94077.69;;;22.73;46.53
20009;BME280;10165;42.662;23.260;2023-07-29T05:46:25;94080.56;;;23.02;45.32
20009;BME280;10165;42.662;23.260;2023-07-29T05:48:51;94075.72;;;23.25;45.62
20009;BME280;10165;42.662;23.260;2023-07-29T05:51:18;94078.25;;;23.16;45.45
20009;BME280;10165;42.662;23.260;2023-07-29T05:53:46;94079.91;;;23.30;45.24
20009;BME280;10165;42.662;23.260;2023-07-29T05:56:12;94079.41;;;23.51;44.46
20009;BME280;10165;42.662;23.260;2023-07-29T05:58:39;94079.97;;;23.10;45.40
20009;BME280;10165;42.662;23.260;2023-07-29T06:01:06;94085.34;;;23.46;44.74
20009;BME280;10165;42.662;23.260;2023-07-29T06:03:33;94079.97;;;23.75;43.79
20009;BME280;10165;42.662;23.260;2023-07-29T06:06:00;94081.78;;;24.10;43.15
20009;BME280;10165;42.662;23.260;2023-07-29T06:08:28;94072.47;;;24.24;42.90
20009;BME280;10165;42.662;23.260;2023-07-29T06:10:55;94075.78;;;24.44;42.22
20009;BME280;10165;42.662;23.260;2023-07-29T06:13:22;94077.81;;;24.27;42.00
20009;BME280;10165;42.662;23.260;2023-07-29T06:15:50;94074.97;;;24.18;42.69
20009;BME280;10165;42.662;23.260;2023-07-29T06:18:17;94071.78;;;24.61;41.42
20009;BME280;10165;42.662;23.260;2023-07-29T06:20:44;94064.13;;;24.69;41.41
20009;BME280;10165;42.662;23.260;2023-07-29T06:23:11;94069.50;;;24.72;41.35
20009;BME280;10165;42.662;23.260;2023-07-29T06:25:40;94059.13;;;24.67;41.32
20009;BME280;10165;42.662;23.260;2023-07-29T06:28:09;94068.13;;;24.10;42.95
20009;BME280;10165;42.662;23.260;2023-07-29T06:30:36;94064.63;;;24.39;42.60
20009;BME280;10165;42.662;23.260;2023-07-29T06:33:02;94063.28;;;24.18;43.02
20009;BME280;10165;42.662;23.260;2023-07-29T06:35:29;94055.09;;;24.72;41.89
20009;BME280;10165;42.662;23.260;2023-07-29T06:37:57;94058.78;;;24.65;40.97
20009;BME280;10165;42.662;23.260;2023-07-29T06:40:23;94057.75;;;25.01;41.15
20009;BME280;10165;42.662;23.260;2023-07-29T06:42:53;94056.72;;;25.45;40.26
20009;BME280;10165;42.662;23.260;2023-07-29T06:45:20;94048.31;;;25.27;39.76
20009;BME280;10165;42.662;23.260;2023-07-29T06:47:46;94045.81;;;25.07;40.81
20009;BME280;10165;42.662;23.260;2023-07-29T06:50:13;94046.78;;;25.26;39.83
20009;BME280;10165;42.662;23.260;2023-07-29T06:52:40;94055.56;;;25.08;40.32
20009;BME280;10165;42.662;23.260;2023-07-29T06:55:07;94056.41;;;25.31;39.97
20009;BME280;10165;42.662;23.260;2023-07-29T06:57:34;94063.75;;;25.21;40.03
20009;BME280;10165;42.662;23.260;2023-07-29T07:00:02;94060.75;;;25.66;38.94
20009;BME280;10165;42.662;23.260;2023-07-29T07:02:29;94066.69;;;25.27;39.33
20009;BME280;10165;42.662;23.260;2023-07-29T07:04:55;94057.31;;;25.28;39.95
20009;BME280;10165;42.662;23.260;2023-07-29T07:07:22;94062.09;;;25.49;39.31
20009;BME280;10165;42.662;23.260;2023-07-29T07:09:49;94058.13;;;25.75;39.43
20009;BME280;10165;42.662;23.260;2023-07-29T07:12:15;94058.59;;;25.36;39.92
20009;BME280;10165;42.662;23.260;2023-07-29T07:14:42;94047.31;;;25.93;38.61
20009;BME280;10165;42.662;23.260;2023-07-29T07:17:09;94046.69;;;25.89;38.61
20009;BME280;10165;42.662;23.260;2023-07-29T07:19:39;94048.69;;;25.76;38.27
20009;BME280;10165;42.662;23.260;2023-07-29T07:22:06;94052.22;;;26.33;37.76
20009;BME280;10165;42.662;23.260;2023-07-29T07:24:33;94053.22;;;26.26;37.01
20009;BME280;10165;42.662;23.260;2023-07-29T07:27:00;94050.75;;;26.06;37.54
20009;BME280;10165;42.662;23.260;2023-07-29T07:29:26;94051.28;;;25.80;37.80
20009;BME280;10165;42.662;23.260;2023-07-29T07:31:53;94049.16;;;26.31;36.90
20009;BME280;10165;42.662;23.260;2023-07-29T07:34:21;94051.16;;;26.61;36.05
20009;BME280;10165;42.662;23.260;2023-07-29T07:36:47;94040.06;;;26.64;36.83
20009;BME280;10165;42.662;23.260;2023-07-29T07:39:15;94045.50;;;26.34;36.34
20009;BME280;10165;42.662;23.260;2023-07-29T07:41:41;94049.06;;;25.65;37.54
20009;BME280;10165;42.662;23.260;2023-07-29T07:44:08;94039.59;;;26.13;37.17
20009;BME280;10165;42.662;23.260;2023-07-29T07:46:35;94042.91;;;26.52;37.43
20009;BME280;10165;42.662;23.260;2023-07-29T07:49:02;94039.16;;;26.89;37.03
20009;BME280;10165;42.662;23.260;2023-07-29T07:51:29;94044.03;;;26.85;36.15
20009;BME280;10165;42.662;23.260;2023-07-29T07:53:56;94041.06;;;27.01;35.72
20009;BME280;10165;42.662;23.260;2023-07-29T07:56:23;94047.84;;;27.28;35.23
20009;BME280;10165;42.662;23.260;2023-07-29T07:58:49;94044.72;;;27.07;35.79
20009;BME280;10165;42.662;23.260;2023-07-29T08:01:16;94040.25;;;26.92;36.46
20009;BME280;10165;42.662;23.260;2023-07-29T08:03:43;94040.44;;;27.06;35.63
20009;BME280;10165;42.662;23.260;2023-07-29T08:06:10;94039.63;;;27.28;35.66
20009;BME280;10165;42.662;23.260;2023-07-29T08:08:36;94045.78;;;27.01;35.94
20009;BME280;10165;42.662;23.260;2023-07-29T08:11:03;94043.47;;;26.99;36.67
20009;BME280;10165;42.662;23.260;2023-07-29T08:13:30;94048.50;;;26.27;35.65
20009;BME280;10165;42.662;23.260;2023-07-29T08:15:57;94052.91;;;26.68;36.01
20009;BME280;10165;42.662;23.260;2023-07-29T08:18:23;94048.97;;;26.47;36.01
20009;BME280;10165;42.662;23.260;2023-07-29T08:20:55;94051.28;;;26.79;36.25
20009;BME280;10165;42.662;23.260;2023-07-29T08:23:22;94056.88;;;26.97;35.20
20009;BME280;10165;42.662;23.260;2023-07-29T08:25:53;94044.06;;;26.94;34.87
20009;BME280;10165;42.662;23.260;2023-07-29T08:28:20;94051.75;;;27.08;35.51
20009;BME280;10165;42.662;23.260;2023-07-29T08:30:47;94056.69;;;27.32;34.65
20009;BME280;10165;42.662;23.260;2023-07-29T08:33:15;94048.09;;;27.12;33.68
20009;BME280;10165;42.662;23.260;2023-07-29T08:35:41;94048.47;;;27.41;33.85
20009;BME280;10165;42.662;23.260;2023-07-29T08:38:08;94045.69;;;27.63;32.91
20009;BME280;10165;42.662;23.260;2023-07-29T08:40:37;94046.59;;;27.60;34.03
20009;BME280;10165;42.662;23.260;2023-07-29T08:43:08;94034.66;;;27.53;33.09
20009;BME280;10165;42.662;23.260;2023-07-29T08:45:36;94030.59;;;27.67;33.94
20009;BME280;10165;42.662;23.260;2023-07-29T08:48:07;94040.00;;;27.08;34.11
20009;BME280;10165;42.662;23.260;2023-07-29T08:50:36;94032.78;;;27.32;34.19
20009;BME280;10165;42.662;23.260;2023-07-29T08:53:06;94029.03;;;27.48;33.35
20009;BME280;10165;42.662;23.260;2023-07-29T08:55:33;94025.56;;;27.84;32.43
20009;BME280;10165;42.662;23.260;2023-07-29T08:58:00;94034.38;;;27.61;31.52
20009;BME280;10165;42.662;23.260;2023-07-29T09:00:27;94029.69;;;27.88;31.63
20009;BME280;10165;42.662;23.260;2023-07-29T09:02:54;94026.78;;;28.01;31.23
20009;BME280;10165;42.662;23.260;2023-07-29T09:05:22;94024.03;;;27.74;30.42
20009;BME280;10165;42.662;23.260;2023-07-29T09:07:51;94020.69;;;27.97;30.57
20009;BME280;10165;42.662;23.260;2023-07-29T09:10:25;94021.72;;;27.72;29.27
20009;BME280;10165;42.662;23.260;2023-07-29T09:12:53;94021.78;;;28.09;30.38
20009;BME280;10165;42.662;23.260;2023-07-29T09:15:30;94014.59;;;27.93;32.23
20009;BME280;10165;42.662;23.260;2023-07-29T09:17:57;94010.91;;;27.87;31.18
20009;BME280;10165;42.662;23.260;2023-07-29T09:20:30;94008.19;;;28.32;30.28
20009;BME280;10165;42.662;23.260;2023-07-29T09:23:00;94006.13;;;28.69;29.70
20009;BME280;10165;42.662;23.260;2023-07-29T09:25:28;94010.25;;;28.74;30.94
20009;BME280;10165;42.662;23.260;2023-07-29T09:27:59;93999.63;;;28.39;30.47
20009;BME280;10165;42.662;23.260;2023-07-29T09:30:27;94010.22;;;28.65;29.99
20009;BME280;10165;42.662;23.260;2023-07-29T09:32:56;94006.19;;;27.87;30.97
20009;BME280;10165;42.662;23.260;2023-07-29T09:35:27;94005.91;;;28.13;31.52
20009;BME280;10165;42.662;23.260;2023-07-29T09:37:54;93992.44;;;28.42;30.44
20009;BME280;10165;42.662;23.260;2023-07-29T09:40:21;93999.47;;;28.43;30.60
20009;BME280;10165;42.662;23.260;2023-07-29T09:42:50;93994.28;;;27.99;30.73
20009;BME280;10165;42.662;23.260;2023-07-29T09:45:26;93986.97;;;28.06;30.49
20009;BME280;10165;42.662;23.260;2023-07-29T09:47:54;93994.16;;;28.12;30.51
20009;BME280;10165;42.662;23.260;2023-07-29T09:50:23;93992.47;;;28.24;28.93
20009;BME280;10165;42.662;23.260;2023-07-29T09:52:52;93992.75;;;28.35;29.12
20009;BME280;10165;42.662;23.260;2023-07-29T09:55:21;93985.94;;;28.81;29.42
20009;BME280;10165;42.662;23.260;2023-07-29T09:57:53;93989.28;;;28.67;30.19
20009;BME280;10165;42.662;23.260;2023-07-29T10:00:20;93984.72;;;28.82;28.47
20009;BME280;10165;42.662;23.260;2023-07-29T10:02:47;93994.44;;;28.92;29.58
20009;BME280;10165;42.662;23.260;2023-07-29T10:05:15;93979.63;;;28.90;28.71
20009;BME280;10165;42.662;23.260;2023-07-29T10:07:42;93978.47;;;29.06;29.12
20009;BME280;10165;42.662;23.260;2023-07-29T10:10:09;93973.44;;;29.37;29.41
20009;BME280;10165;42.662;23.260;2023-07-29T10:12:36;93987.50;;;29.06;28.22
20009;BME280;10165;42.662;23.260;2023-07-29T10:15:04;93974.78;;;28.76;28.60
20009;BME280;10165;42.662;23.260;2023-07-29T10:17:38;93969.78;;;28.65;27.97
20009;BME280;10165;42.662;23.260;2023-07-29T10:20:07;93970.16;;;28.40;28.16
20009;BME280;10165;42.662;23.260;2023-07-29T10:25:14;93959.09;;;28.58;28.44
20009;BME280;10165;42.662;23.260;2023-07-29T10:27:49;93952.06;;;28.57;27.12
20009;BME280;10165;42.662;23.260;2023-07-29T10:30:18;93949.91;;;29.03;27.44
20009;BME280;10165;42.662;23.260;2023-07-29T10:32:45;93953.72;;;29.06;26.43
20009;BME280;10165;42.662;23.260;2023-07-29T10:35:13;93950.16;;;29.14;27.40
20009;BME280;10165;42.662;23.260;2023-07-29T10:37:40;93950.59;;;28.89;27.11
20009;BME280;10165;42.662;23.260;2023-07-29T10:40:10;93945.16;;;29.60;26.73
20009;BME280;10165;42.662;23.260;2023-07-29T10:42:38;93946.13;;;29.72;25.92
20009;BME280;10165;42.662;23.260;2023-07-29T10:45:25;93941.91;;;29.47;26.35
20009;BME280;10165;42.662;23.260;2023-07-29T10:47:52;93939.56;;;29.69;26.10
20009;BME280;10165;42.662;23.260;2023-07-29T10:50:20;93938.63;;;29.72;24.99
20009;BME280;10165;42.662;23.260;2023-07-29T10:52:53;93935.03;;;29.81;24.93
20009;BME280;10165;42.662;23.260;2023-07-29T10:55:31;93922.56;;;29.95;25.08
20009;BME280;10165;42.662;23.260;2023-07-29T10:58:17;93920.56;;;29.71;25.71
20009;BME280;10165;42.662;23.260;2023-07-29T11:00:45;93922.97;;;29.40;26.75
20009;BME280;10165;42.662;23.260;2023-07-29T11:03:13;93924.00;;;29.19;26.97
20009;BME280;10165;42.662;23.260;2023-07-29T11:05:51;93919.75;;;29.41;26.32
20009;BME280;10165;42.662;23.260;2023-07-29T11:08:28;93910.63;;;29.74;25.77
20009;BME280;10165;42.662;23.260;2023-07-29T11:13:27;93907.28;;;30.52;25.68
20009;BME280;10165;42.662;23.260;2023-07-29T11:15:55;93904.31;;;30.41;25.03
20009;BME280;10165;42.662;23.260;2023-07-29T11:18:26;93900.66;;;30.79;25.00
20009;BME280;10165;42.662;23.260;2023-07-29T11:20:54;93903.56;;;30.90;25.14
20009;BME280;10165;42.662;23.260;2023-07-29T11:23:20;93905.09;;;30.56;24.28
20009;BME280;10165;42.662;23.260;2023-07-29T11:25:53;93911.94;;;29.40;25.09
20009;BME280;10165;42.662;23.260;2023-07-29T11:28:20;93908.81;;;30.24;24.71
20009;BME280;10165;42.662;23.260;2023-07-29T11:30:46;93901.00;;;30.66;23.98
20009;BME280;10165;42.662;23.260;2023-07-29T11:33:13;93891.78;;;30.90;24.26
20009;BME280;10165;42.662;23.260;2023-07-29T11:35:40;93897.00;;;31.02;25.25
20009;BME280;10165;42.662;23.260;2023-07-29T11:38:07;93893.03;;;30.89;24.01
20009;BME280;10165;42.662;23.260;2023-07-29T11:40:34;93889.75;;;30.70;24.45
20009;BME280;10165;42.662;23.260;2023-07-29T11:43:01;93885.88;;;30.32;24.17
20009;BME280;10165;42.662;23.260;2023-07-29T11:45:27;93891.44;;;29.79;24.44
20009;BME280;10165;42.662;23.260;2023-07-29T11:48:14;93893.31;;;30.12;24.73
20009;BME280;10165;42.662;23.260;2023-07-29T11:50:41;93877.50;;;30.56;24.32
20009;BME280;10165;42.662;23.260;2023-07-29T11:53:08;93885.13;;;30.61;23.97
20009;BME280;10165;42.662;23.260;2023-07-29T11:55:34;93884.19;;;30.35;23.71
20009;BME280;10165;42.662;23.260;2023-07-29T11:58:04;93881.31;;;30.94;23.21
20009;BME280;10165;42.662;23.260;2023-07-29T12:00:31;93876.28;;;30.57;23.30
20009;BME280;10165;42.662;23.260;2023-07-29T12:02:58;93872.34;;;30.64;23.31
20009;BME280;10165;42.662;23.260;2023-07-29T12:05:25;93870.56;;;30.61;23.54
20009;BME280;10165;42.662;23.260;2023-07-29T12:07:52;93870.97;;;30.89;23.61
20009;BME280;10165;42.662;23.260;2023-07-29T12:10:19;93862.97;;;30.91;22.87
20009;BME280;10165;42.662;23.260;2023-07-29T12:12:48;93863.66;;;30.86;23.34
20009;BME280;10165;42.662;23.260;2023-07-29T12:15:23;93861.63;;;31.21;23.63
20009;BME280;10165;42.662;23.260;2023-07-29T12:17:53;93855.91;;;31.24;22.56
20009;BME280;10165;42.662;23.260;2023-07-29T12:20:20;93863.28;;;30.43;23.45
20009;BME280;10165;42.662;23.260;2023-07-29T12:22:55;93857.34;;;30.65;22.67
20009;BME280;10165;42.662;23.260;2023-07-29T12:25:22;93854.94;;;31.07;22.90
20009;BME280;10165;42.662;23.260;2023-07-29T12:27:49;93859.28;;;30.29;23.14
20009;BME280;10165;42.662;23.260;2023-07-29T12:30:20;93851.38;;;30.37;23.40
20009;BME280;10165;42.662;23.260;2023-07-29T12:32:47;93852.34;;;30.34;23.55
20009;BME280;10165;42.662;23.260;2023-07-29T12:35:14;93849.22;;;31.11;22.88
20009;BME280;10165;42.662;23.260;2023-07-29T12:37:41;93846.88;;;31.04;23.19
20009;BME280;10165;42.662;23.260;2023-07-29T12:40:30;93859.28;;;31.34;23.01
20009;BME280;10165;42.662;23.260;2023-07-29T12:42:56;93855.56;;;31.17;22.68
20009;BME280;10165;42.662;23.260;2023-07-29T12:45:24;93868.53;;;31.11;22.25
20009;BME280;10165;42.662;23.260;2023-07-29T12:47:54;93855.91;;;31.24;22.72
20009;BME280;10165;42.662;23.260;2023-07-29T12:50:21;93851.47;;;31.33;21.64
20009;BME280;10165;42.662;23.260;2023-07-29T12:52:48;93851.63;;;31.64;22.02
20009;BME280;10165;42.662;23.260;2023-07-29T12:55:15;93854.41;;;31.23;22.37
20009;BME280;10165;42.662;23.260;2023-07-29T12:57:45;93856.22;;;31.72;22.03
20009;BME280;10165;42.662;23.260;2023-07-29T13:00:12;93853.25;;;32.02;22.72
20009;BME280;10165;42.662;23.260;2023-07-29T13:02:39;93852.59;;;31.87;21.61
20009;BME280;10165;42.662;23.260;2023-07-29T13:05:09;93849.91;;;32.18;21.83